Time;durP1;ratioP1;P1;durP2;ratioP2;P2;SDS_P1;SDS_P2;PMS_P1;PMS_P2;Temp;Humidity;BMP_temperature;BMP_pressure;BME280_temperature;BME280_humidity;BME280_pressure;Samples;Min_cycle;Max_cycle;Signal;HPM_P1;HPM_P2
2023/10/14 00:01:36;;;;;;;;;;;18.30;53.90;;;;;;5005715;28;114497;-81
2023/10/14 00:04:09;;;;;;;;;;;18.40;54.20;;;;;;5005414;28;114969;-82
2023/10/14 00:06:39;;;;;;;;;;;18.40;54.60;;;;;;5005302;28;114545;-83
2023/10/14 00:09:12;;;;;;;;;;;18.40;54.70;;;;;;5006073;28;114192;-82
2023/10/14 00:11:54;;;;;;;;;;;18.40;54.40;;;;;;5006152;28;114425;-82
2023/10/14 00:14:23;;;;;;;;;;;18.40;54.50;;;;;;5004114;28;115509;-82
2023/10/14 00:16:51;;;;;;;;;;;18.40;55.20;;;;;;5005159;28;115355;-82
2023/10/14 00:19:18;;;;;;;;;;;18.30;55.40;;;;;;5005707;28;114671;-83
2023/10/14 00:21:47;;;;;;;;;;;18.30;55.70;;;;;;5005773;28;114585;-82
2023/10/14 00:24:25;;;;;;;;;;;18.30;55.90;;;;;;5002256;28;135969;-83
2023/10/14 00:26:53;;;;;;;;;;;18.20;55.80;;;;;;5004904;28;114687;-82
2023/10/14 00:29:20;;;;;;;;;;;18.20;55.70;;;;;;5005784;28;114742;-83
2023/10/14 00:31:48;;;;;;;;;;;18.20;55.60;;;;;;5005854;28;114472;-84
2023/10/14 00:34:15;;;;;;;;;;;18.10;55.60;;;;;;5003503;28;115018;-82
2023/10/14 00:36:43;;;;;;;;;;;18.10;55.60;;;;;;5003581;28;114656;-82
2023/10/14 00:39:13;;;;;;;;;;;18.00;55.20;;;;;;5004494;28;114712;-82
2023/10/14 00:41:44;;;;;;;;;;;18.00;55.00;;;;;;5004810;28;114647;-83
2023/10/14 00:44:11;;;;;;;;;;;18.00;54.60;;;;;;5004641;28;115047;-82
2023/10/14 00:46:42;;;;;;;;;;;18.00;54.70;;;;;;5003402;28;114677;-81
2023/10/14 00:49:11;;;;;;;;;;;18.00;54.90;;;;;;5003651;28;114783;-82
2023/10/14 00:51:43;;;;;;;;;;;18.00;54.80;;;;;;4987796;28;114662;-82
2023/10/14 00:54:11;;;;;;;;;;;18.00;54.00;;;;;;5003278;28;114890;-82
2023/10/14 00:56:41;;;;;;;;;;;18.10;54.10;;;;;;5002268;28;115407;-82
2023/10/14 00:59:09;;;;;;;;;;;18.10;52.90;;;;;;5005368;28;114325;-82
2023/10/14 01:01:55;;;;;;;;;;;18.10;53.10;;;;;;5004151;28;114459;-83
2023/10/14 01:04:31;;;;;;;;;;;18.20;52.60;;;;;;5004327;28;115341;-83
2023/10/14 01:09:33;;;;;;;;;;;18.20;52.40;;;;;;5004935;28;114542;-84
2023/10/14 01:14:53;;;;;;;;;;;18.20;53.40;;;;;;5003116;28;115267;-82
2023/10/14 01:17:25;;;;;;;;;;;18.10;53.80;;;;;;5003869;28;114555;-82
2023/10/14 01:19:53;;;;;;;;;;;18.00;54.20;;;;;;5003873;28;114399;-82
2023/10/14 01:22:20;;;;;;;;;;;18.00;54.40;;;;;;5005171;28;114562;-83
2023/10/14 01:24:48;;;;;;;;;;;17.90;54.50;;;;;;5004006;28;114893;-81
2023/10/14 01:27:16;;;;;;;;;;;17.90;54.30;;;;;;5004261;28;114725;-82
2023/10/14 01:29:44;;;;;;;;;;;17.90;54.50;;;;;;5003641;28;114462;-82
2023/10/14 01:32:24;;;;;;;;;;;17.90;54.50;;;;;;5005521;28;115025;-83
2023/10/14 01:35:02;;;;;;;;;;;17.90;54.80;;;;;;4987083;28;115445;-82
2023/10/14 01:37:34;;;;;;;;;;;17.80;54.70;;;;;;5004094;28;114852;-82
2023/10/14 01:42:47;;;;;;;;;;;17.80;55.50;;;;;;5004480;28;114468;-82
2023/10/14 01:45:20;;;;;;;;;;;17.80;55.60;;;;;;5005043;28;115436;-81
2023/10/14 01:48:05;;;;;;;;;;;17.80;55.70;;;;;;5002829;28;114523;-82
2023/10/14 01:50:33;;;;;;;;;;;17.80;55.90;;;;;;5005730;28;114457;-82
2023/10/14 01:53:08;;;;;;;;;;;17.80;56.10;;;;;;5020176;28;114484;-83
2023/10/14 01:55:36;;;;;;;;;;;17.70;56.20;;;;;;5002890;28;115025;-82
2023/10/14 01:58:09;;;;;;;;;;;17.70;56.40;;;;;;4986635;28;114611;-84
2023/10/14 02:00:38;;;;;;;;;;;17.70;56.50;;;;;;4987783;28;114725;-82
2023/10/14 02:03:06;;;;;;;;;;;17.70;56.70;;;;;;5003452;28;114660;-83
2023/10/14 02:05:39;;;;;;;;;;;17.70;56.80;;;;;;5018494;28;115365;-81
2023/10/14 02:08:13;;;;;;;;;;;17.70;57.20;;;;;;4988314;28;117845;-82
2023/10/14 02:10:53;;;;;;;;;;;17.70;57.40;;;;;;5007988;28;114431;-84
2023/10/14 02:13:21;;;;;;;;;;;17.70;57.40;;;;;;5007530;28;114482;-84
2023/10/14 02:15:49;;;;;;;;;;;17.70;57.70;;;;;;5005724;28;115202;-83
2023/10/14 02:18:20;;;;;;;;;;;17.70;57.70;;;;;;4989238;28;115621;-82
2023/10/14 02:20:57;;;;;;;;;;;17.70;57.80;;;;;;5006498;28;114216;-83
2023/10/14 02:23:28;;;;;;;;;;;17.70;58.30;;;;;;5006785;28;114780;-84
2023/10/14 02:25:56;;;;;;;;;;;17.70;58.50;;;;;;5005628;28;114929;-83
2023/10/14 02:28:27;;;;;;;;;;;17.70;58.40;;;;;;5005662;28;114817;-83
2023/10/14 02:30:59;;;;;;;;;;;17.70;58.60;;;;;;5007203;28;114418;-82
2023/10/14 02:33:27;;;;;;;;;;;17.70;58.50;;;;;;5007929;28;114972;-83
2023/10/14 02:35:59;;;;;;;;;;;17.70;58.60;;;;;;5022283;28;115329;-83
2023/10/14 02:38:29;;;;;;;;;;;17.70;58.70;;;;;;5006686;28;114534;-83
2023/10/14 02:40:56;;;;;;;;;;;17.70;59.00;;;;;;4989953;28;114526;-84
2023/10/14 02:43:24;;;;;;;;;;;17.70;58.90;;;;;;5007443;28;114495;-83
2023/10/14 02:45:58;;;;;;;;;;;17.70;59.00;;;;;;5005459;28;115399;-83
2023/10/14 02:48:49;;;;;;;;;;;17.70;58.80;;;;;;5005584;28;115028;-83
2023/10/14 02:51:16;;;;;;;;;;;17.70;58.90;;;;;;5005770;28;114613;-82
2023/10/14 02:53:45;;;;;;;;;;;17.70;58.80;;;;;;5005762;28;114605;-83
2023/10/14 02:56:21;;;;;;;;;;;17.80;58.70;;;;;;5021375;28;114779;-83
2023/10/14 02:58:48;;;;;;;;;;;17.80;58.70;;;;;;5021928;28;114906;-82
2023/10/14 03:01:15;;;;;;;;;;;17.70;58.70;;;;;;5005960;28;114489;-83
2023/10/14 03:03:42;;;;;;;;;;;17.70;58.80;;;;;;5005904;28;114378;-80
2023/10/14 03:06:14;;;;;;;;;;;17.80;58.80;;;;;;5005820;28;116051;-82
2023/10/14 03:08:57;;;;;;;;;;;17.70;58.80;;;;;;5005809;28;117119;-81
2023/10/14 03:11:25;;;;;;;;;;;17.80;58.80;;;;;;5006783;28;114398;-81
2023/10/14 03:13:53;;;;;;;;;;;17.70;58.90;;;;;;5006212;28;114207;-82
2023/10/14 03:16:20;;;;;;;;;;;17.70;58.90;;;;;;5004565;28;117414;-82
2023/10/14 03:18:47;;;;;;;;;;;17.70;59.00;;;;;;5005116;27;114709;-82
2023/10/14 03:21:31;;;;;;;;;;;17.70;59.00;;;;;;5004744;28;115069;-83
2023/10/14 03:23:58;;;;;;;;;;;17.70;59.00;;;;;;5006336;28;114513;-83
2023/10/14 03:26:47;;;;;;;;;;;17.70;59.10;;;;;;5005756;28;114889;-82
2023/10/14 03:29:22;;;;;;;;;;;17.70;59.10;;;;;;5005868;28;114579;-82
2023/10/14 03:31:50;;;;;;;;;;;17.70;59.20;;;;;;5006687;28;114866;-82
2023/10/14 03:34:17;;;;;;;;;;;17.70;59.20;;;;;;5006755;28;114382;-82
2023/10/14 03:36:50;;;;;;;;;;;17.70;59.30;;;;;;5005690;28;114893;-83
2023/10/14 03:39:37;;;;;;;;;;;17.70;59.20;;;;;;5009062;28;114598;-82
2023/10/14 03:42:11;;;;;;;;;;;17.70;59.30;;;;;;5006600;28;114588;-82
2023/10/14 03:44:41;;;;;;;;;;;17.70;59.50;;;;;;5005528;28;114434;-83
2023/10/14 03:47:15;;;;;;;;;;;17.60;59.50;;;;;;5005266;28;114985;-82
2023/10/14 03:49:43;;;;;;;;;;;17.60;59.40;;;;;;5004329;28;114607;-82
2023/10/14 03:52:12;;;;;;;;;;;17.60;59.60;;;;;;5006465;28;114438;-82
2023/10/14 03:54:44;;;;;;;;;;;17.50;59.60;;;;;;5006518;28;114319;-82
2023/10/14 03:57:33;;;;;;;;;;;17.50;59.80;;;;;;5005468;28;115446;-82
2023/10/14 04:00:09;;;;;;;;;;;17.50;59.80;;;;;;5005320;28;115094;-82
2023/10/14 04:02:40;;;;;;;;;;;17.50;59.90;;;;;;5006224;28;114487;-82
2023/10/14 04:05:10;;;;;;;;;;;17.50;59.80;;;;;;5005396;28;114464;-83
2023/10/14 04:07:40;;;;;;;;;;;17.50;59.70;;;;;;5004188;28;115041;-83
2023/10/14 04:10:09;;;;;;;;;;;17.50;59.80;;;;;;5005147;28;114635;-83
2023/10/14 04:12:37;;;;;;;;;;;17.50;59.80;;;;;;5005740;28;114511;-83
2023/10/14 04:15:07;;;;;;;;;;;17.50;59.80;;;;;;5006311;28;114480;-82
2023/10/14 04:17:34;;;;;;;;;;;17.50;59.70;;;;;;5004531;28;116055;-81
2023/10/14 04:22:41;;;;;;;;;;;17.50;59.60;;;;;;5005654;28;114292;-82
2023/10/14 04:28:18;;;;;;;;;;;17.50;59.70;;;;;;5004820;28;114972;-83
2023/10/14 04:30:44;;;;;;;;;;;17.50;59.70;;;;;;5020907;27;116558;-81
2023/10/14 04:35:57;;;;;;;;;;;17.50;59.70;;;;;;5004374;28;114767;-82
2023/10/14 04:38:28;;;;;;;;;;;17.60;59.60;;;;;;5004184;28;116130;-83
2023/10/14 04:40:58;;;;;;;;;;;17.50;59.60;;;;;;5004727;28;114549;-83
2023/10/14 04:45:52;;;;;;;;;;;17.50;59.60;;;;;;5005671;28;114416;-83
2023/10/14 04:48:27;;;;;;;;;;;17.50;59.70;;;;;;5004509;28;114820;-83
2023/10/14 04:50:57;;;;;;;;;;;17.60;59.70;;;;;;5004170;28;115657;-82
2023/10/14 04:53:26;;;;;;;;;;;17.50;59.60;;;;;;5005498;28;114388;-83
2023/10/14 04:55:54;;;;;;;;;;;17.50;59.50;;;;;;5005949;28;114384;-83
2023/10/14 04:58:25;;;;;;;;;;;17.50;59.40;;;;;;5003417;28;115508;-81
2023/10/14 05:00:56;;;;;;;;;;;17.50;59.40;;;;;;5004513;28;114479;-81
2023/10/14 05:03:23;;;;;;;;;;;17.50;59.30;;;;;;5004959;28;114537;-82
2023/10/14 05:05:55;;;;;;;;;;;17.50;59.30;;;;;;5005170;28;114507;-83
2023/10/14 05:08:24;;;;;;;;;;;17.50;59.20;;;;;;5002683;28;114963;-82
2023/10/14 05:10:51;;;;;;;;;;;17.50;59.20;;;;;;5002890;28;114582;-82
2023/10/14 05:13:34;;;;;;;;;;;17.50;59.20;;;;;;5003455;28;114527;-83
2023/10/14 05:16:15;;;;;;;;;;;17.50;59.10;;;;;;5004749;28;114586;-82
2023/10/14 05:19:07;;;;;;;;;;;17.50;58.80;;;;;;5002382;28;115350;-83
2023/10/14 05:21:42;;;;;;;;;;;17.50;58.70;;;;;;5009655;28;114612;-84
2023/10/14 05:24:10;;;;;;;;;;;17.60;58.20;;;;;;5023054;28;114710;-83
2023/10/14 05:26:44;;;;;;;;;;;17.60;58.10;;;;;;5023988;28;114082;-83
2023/10/14 05:29:17;;;;;;;;;;;17.60;57.90;;;;;;5023434;28;114809;-83
2023/10/14 05:31:45;;;;;;;;;;;17.70;57.80;;;;;;5015754;28;115549;-83
2023/10/14 05:34:14;;;;;;;;;;;17.70;57.80;;;;;;5005945;28;114486;-83
2023/10/14 05:36:41;;;;;;;;;;;17.70;57.80;;;;;;5008186;28;115166;-83
2023/10/14 05:39:11;;;;;;;;;;;17.80;57.90;;;;;;5013010;28;116609;-84
2023/10/14 05:41:38;;;;;;;;;;;17.90;57.80;;;;;;5003695;28;114690;-84
2023/10/14 05:44:06;;;;;;;;;;;18.00;57.80;;;;;;5007007;28;114384;-84
2023/10/14 05:46:34;;;;;;;;;;;18.10;57.80;;;;;;5010057;28;114367;-82
2023/10/14 05:49:01;;;;;;;;;;;18.20;57.70;;;;;;5030621;27;115055;-84
2023/10/14 05:51:29;;;;;;;;;;;18.30;57.70;;;;;;5016779;28;114639;-84
2023/10/14 05:53:56;;;;;;;;;;;18.40;57.60;;;;;;5023744;28;114547;-84
2023/10/14 05:56:27;;;;;;;;;;;18.50;57.40;;;;;;5011505;28;114677;-84
2023/10/14 05:58:55;;;;;;;;;;;18.60;57.30;;;;;;5026429;27;114770;-82
2023/10/14 06:01:23;;;;;;;;;;;18.70;57.10;;;;;;5027316;28;114684;-80
2023/10/14 06:03:51;;;;;;;;;;;18.80;57.10;;;;;;5028473;28;114577;-81
2023/10/14 06:06:21;;;;;;;;;;;18.90;56.80;;;;;;5028897;28;114088;-80
2023/10/14 06:08:49;;;;;;;;;;;19.00;56.70;;;;;;5022502;27;117460;-82
2023/10/14 06:11:17;;;;;;;;;;;19.20;56.30;;;;;;5006256;28;115332;-80
2023/10/14 06:13:44;;;;;;;;;;;19.30;56.20;;;;;;5016569;28;114349;-82
2023/10/14 06:16:11;;;;;;;;;;;19.40;56.30;;;;;;5027887;28;114452;-82
2023/10/14 06:18:39;;;;;;;;;;;19.50;56.30;;;;;;5026159;28;114834;-82
2023/10/14 06:21:06;;;;;;;;;;;19.70;56.20;;;;;;5015772;28;114731;-82
2023/10/14 06:23:33;;;;;;;;;;;19.90;56.10;;;;;;4992816;28;114575;-82
2023/10/14 06:26:00;;;;;;;;;;;20.00;55.80;;;;;;5027857;27;114446;-82
2023/10/14 06:28:28;;;;;;;;;;;20.00;55.20;;;;;;5027340;27;114987;-82
2023/10/14 06:30:55;;;;;;;;;;;20.00;55.50;;;;;;5027148;28;114595;-83
2023/10/14 06:33:26;;;;;;;;;;;20.10;55.30;;;;;;5009388;28;114315;-82
2023/10/14 06:35:53;;;;;;;;;;;20.10;55.20;;;;;;5007019;28;114487;-82
2023/10/14 06:38:22;;;;;;;;;;;20.10;55.40;;;;;;5017884;28;114863;-82
2023/10/14 06:41:01;;;;;;;;;;;20.30;55.50;;;;;;5029019;28;114778;-83
2023/10/14 06:43:28;;;;;;;;;;;20.40;55.50;;;;;;5027142;28;114579;-83
2023/10/14 06:45:56;;;;;;;;;;;20.60;55.40;;;;;;5026295;28;115050;-82
2023/10/14 06:48:24;;;;;;;;;;;20.60;55.10;;;;;;5003914;28;114832;-83
2023/10/14 06:50:54;;;;;;;;;;;20.70;54.90;;;;;;5004782;28;114722;-82
2023/10/14 06:53:22;;;;;;;;;;;20.70;54.60;;;;;;5004888;28;114611;-82
2023/10/14 06:55:50;;;;;;;;;;;20.80;54.80;;;;;;5007353;28;114439;-82
2023/10/14 06:58:19;;;;;;;;;;;20.80;54.80;;;;;;5005898;28;115135;-82
2023/10/14 07:00:46;;;;;;;;;;;21.00;54.80;;;;;;5012501;28;114713;-82
2023/10/14 07:03:13;;;;;;;;;;;21.10;54.80;;;;;;5000642;28;114679;-81
2023/10/14 07:05:48;;;;;;;;;;;21.30;54.80;;;;;;5027186;28;114345;-82
2023/10/14 07:08:15;;;;;;;;;;;21.30;54.60;;;;;;5018973;28;115124;-82
2023/10/14 07:10:43;;;;;;;;;;;21.40;54.40;;;;;;5020138;28;114612;-81
2023/10/14 07:13:11;;;;;;;;;;;21.60;54.50;;;;;;5009852;28;114663;-83
2023/10/14 07:15:38;;;;;;;;;;;21.60;54.30;;;;;;5007197;28;114520;-83
2023/10/14 07:18:05;;;;;;;;;;;21.70;54.10;;;;;;5011269;28;115000;-82
2023/10/14 07:20:33;;;;;;;;;;;21.70;54.10;;;;;;5012168;28;115115;-82
2023/10/14 07:23:10;;;;;;;;;;;21.80;54.10;;;;;;5012560;27;114569;-83
2023/10/14 07:25:39;;;;;;;;;;;21.80;54.10;;;;;;5007649;28;114446;-82
2023/10/14 07:28:07;;;;;;;;;;;21.90;53.60;;;;;;5021040;28;114922;-83
2023/10/14 07:30:34;;;;;;;;;;;21.80;51.80;;;;;;5004589;28;116566;-82
2023/10/14 07:33:05;;;;;;;;;;;21.70;52.20;;;;;;5006275;28;114591;-83
2023/10/14 07:35:35;;;;;;;;;;;21.60;52.00;;;;;;5006772;28;114414;-83
2023/10/14 07:38:02;;;;;;;;;;;21.40;52.00;;;;;;5005904;28;114884;-83
2023/10/14 07:40:33;;;;;;;;;;;21.30;52.10;;;;;;5006028;28;114865;-82
2023/10/14 07:43:07;;;;;;;;;;;21.40;52.10;;;;;;5018944;28;114407;-82
2023/10/14 07:45:37;;;;;;;;;;;21.30;51.50;;;;;;5023398;28;114344;-84
2023/10/14 07:48:08;;;;;;;;;;;21.30;51.90;;;;;;5025639;28;115007;-81
2023/10/14 07:50:42;;;;;;;;;;;21.30;52.00;;;;;;5026000;28;115276;-82
2023/10/14 07:53:12;;;;;;;;;;;21.30;52.20;;;;;;5023891;28;114508;-82
2023/10/14 07:55:43;;;;;;;;;;;21.40;52.00;;;;;;5009199;28;114170;-83
2023/10/14 07:58:10;;;;;;;;;;;21.40;51.90;;;;;;5023895;28;117049;-83
2023/10/14 08:00:39;;;;;;;;;;;21.60;52.20;;;;;;5011944;28;114592;-80
2023/10/14 08:03:07;;;;;;;;;;;21.70;52.10;;;;;;5005277;28;114407;-80
2023/10/14 08:05:35;;;;;;;;;;;21.80;51.90;;;;;;5006389;28;114291;-80
2023/10/14 08:08:06;;;;;;;;;;;21.80;51.70;;;;;;5005704;28;115378;-81
2023/10/14 08:10:34;;;;;;;;;;;21.80;51.50;;;;;;5010245;28;115089;-81
2023/10/14 08:13:04;;;;;;;;;;;21.90;51.50;;;;;;5012735;28;114722;-82
2023/10/14 08:15:32;;;;;;;;;;;22.00;51.50;;;;;;5004233;28;114753;-82
2023/10/14 08:18:00;;;;;;;;;;;22.00;51.50;;;;;;5001485;28;116153;-82
2023/10/14 08:20:28;;;;;;;;;;;22.10;51.20;;;;;;5004690;28;115642;-82
2023/10/14 08:22:55;;;;;;;;;;;22.20;51.20;;;;;;5004121;28;115228;-83
2023/10/14 08:25:28;;;;;;;;;;;22.20;51.40;;;;;;5004472;28;114379;-83
2023/10/14 08:27:57;;;;;;;;;;;22.20;51.40;;;;;;5005668;28;115083;-82
2023/10/14 08:30:24;;;;;;;;;;;22.30;51.60;;;;;;5005283;28;114797;-82
2023/10/14 08:32:54;;;;;;;;;;;22.40;51.40;;;;;;5006946;28;114426;-83
2023/10/14 08:35:27;;;;;;;;;;;22.30;49.30;;;;;;5007029;28;114548;-82
2023/10/14 08:37:54;;;;;;;;;;;22.20;50.40;;;;;;5005970;28;114927;-83
2023/10/14 08:40:22;;;;;;;;;;;22.10;49.90;;;;;;5005652;28;115088;-84
2023/10/14 08:42:51;;;;;;;;;;;22.10;50.60;;;;;;5007249;28;114151;-83
2023/10/14 08:45:20;;;;;;;;;;;22.00;49.40;;;;;;5007031;28;114397;-82
2023/10/14 08:47:50;;;;;;;;;;;21.90;49.70;;;;;;5005486;28;115245;-83
2023/10/14 08:50:21;;;;;;;;;;;21.80;49.90;;;;;;5005932;28;114548;-83
2023/10/14 08:52:49;;;;;;;;;;;21.70;50.10;;;;;;5005964;28;114533;-83
2023/10/14 08:55:21;;;;;;;;;;;21.60;50.20;;;;;;5005780;28;114411;-83
2023/10/14 08:57:49;;;;;;;;;;;21.60;50.80;;;;;;5004738;28;115010;-82
2023/10/14 09:00:20;;;;;;;;;;;21.70;50.80;;;;;;5004705;28;114607;-83
2023/10/14 09:02:51;;;;;;;;;;;21.80;50.20;;;;;;5005588;28;114343;-83
2023/10/14 09:05:18;;;;;;;;;;;21.70;49.80;;;;;;4989653;28;114252;-83
2023/10/14 09:07:46;;;;;;;;;;;21.70;50.30;;;;;;5005962;28;115038;-82
2023/10/14 09:10:15;;;;;;;;;;;21.70;50.30;;;;;;5007616;28;114559;-81
2023/10/14 09:12:52;;;;;;;;;;;21.80;50.10;;;;;;5006364;28;114307;-82
2023/10/14 09:15:21;;;;;;;;;;;21.70;50.60;;;;;;5006875;28;114156;-82
2023/10/14 09:17:48;;;;;;;;;;;21.70;49.80;;;;;;5006307;28;116198;-82
2023/10/14 09:20:31;;;;;;;;;;;21.60;50.50;;;;;;5009136;28;114616;-81
2023/10/14 09:23:17;;;;;;;;;;;21.70;50.30;;;;;;5009930;28;114284;-81
2023/10/14 09:25:44;;;;;;;;;;;21.70;50.80;;;;;;5010004;28;114349;-82
2023/10/14 09:28:16;;;;;;;;;;;21.80;50.50;;;;;;5008112;28;114886;-82
2023/10/14 09:30:44;;;;;;;;;;;21.80;50.10;;;;;;5008521;28;114646;-83
2023/10/14 09:33:15;;;;;;;;;;;21.80;50.00;;;;;;5008894;28;114564;-81
2023/10/14 09:35:43;;;;;;;;;;;21.80;50.30;;;;;;5010313;28;114291;-81
2023/10/14 09:38:12;;;;;;;;;;;21.90;50.80;;;;;;5007726;28;115835;-81
2023/10/14 09:40:39;;;;;;;;;;;21.90;49.80;;;;;;5008252;28;115621;-82
2023/10/14 09:43:06;;;;;;;;;;;21.80;50.40;;;;;;5008567;28;114571;-83
2023/10/14 09:45:33;;;;;;;;;;;21.80;50.60;;;;;;5008904;28;114245;-82
2023/10/14 09:48:01;;;;;;;;;;;21.70;50.70;;;;;;4991037;28;117807;-82
2023/10/14 09:50:29;;;;;;;;;;;21.70;50.60;;;;;;4991390;28;117760;-82
2023/10/14 09:52:56;;;;;;;;;;;21.60;50.40;;;;;;5008553;28;114289;-82
2023/10/14 09:55:23;;;;;;;;;;;21.60;50.90;;;;;;5008813;28;114181;-83
2023/10/14 09:57:50;;;;;;;;;;;21.50;50.80;;;;;;5007483;28;115277;-83
2023/10/14 10:00:17;;;;;;;;;;;21.50;50.90;;;;;;5008659;28;114705;-81
2023/10/14 10:02:45;;;;;;;;;;;21.50;51.10;;;;;;5008625;28;114387;-82
2023/10/14 10:05:17;;;;;;;;;;;21.50;51.20;;;;;;5008465;28;114276;-81
2023/10/14 10:07:56;;;;;;;;;;;21.40;51.40;;;;;;5007296;28;115157;-83
2023/10/14 10:10:25;;;;;;;;;;;21.30;51.70;;;;;;5008289;28;114595;-81
2023/10/14 10:12:55;;;;;;;;;;;21.40;51.80;;;;;;4991835;28;114607;-83
2023/10/14 10:15:23;;;;;;;;;;;21.50;51.70;;;;;;5007917;28;114597;-82
2023/10/14 10:17:54;;;;;;;;;;;21.60;51.70;;;;;;5006982;28;114851;-83
2023/10/14 10:20:28;;;;;;;;;;;21.80;51.80;;;;;;5007485;28;114637;-81
2023/10/14 10:22:56;;;;;;;;;;;21.90;51.90;;;;;;5009591;28;114236;-83
2023/10/14 10:25:47;;;;;;;;;;;22.00;51.90;;;;;;4992093;28;114348;-83
2023/10/14 10:28:25;;;;;;;;;;;22.20;51.90;;;;;;5007426;28;114821;-82
2023/10/14 10:31:09;;;;;;;;;;;22.30;51.80;;;;;;5006825;28;115934;-82
2023/10/14 10:33:49;;;;;;;;;;;22.50;51.30;;;;;;5007351;28;114829;-82
2023/10/14 10:36:24;;;;;;;;;;;22.60;51.20;;;;;;5007533;28;115029;-83
2023/10/14 10:38:55;;;;;;;;;;;22.60;51.30;;;;;;5006539;28;115991;-83
2023/10/14 10:41:25;;;;;;;;;;;22.80;51.00;;;;;;5006377;28;115585;-82
2023/10/14 10:43:58;;;;;;;;;;;22.80;51.00;;;;;;5008872;28;114431;-82
2023/10/14 10:46:28;;;;;;;;;;;22.90;50.80;;;;;;4991449;28;114123;-83
2023/10/14 10:48:56;;;;;;;;;;;22.90;50.70;;;;;;5007776;28;115788;-82
2023/10/14 10:51:27;;;;;;;;;;;22.90;50.60;;;;;;5007788;28;115226;-83
2023/10/14 10:53:55;;;;;;;;;;;22.90;50.50;;;;;;5008206;28;114129;-84
2023/10/14 10:56:22;;;;;;;;;;;22.90;50.40;;;;;;5009650;28;114333;-83
2023/10/14 10:58:49;;;;;;;;;;;22.90;50.20;;;;;;5008418;28;115025;-82
2023/10/14 11:01:19;;;;;;;;;;;22.90;50.20;;;;;;5006816;28;114244;-82
2023/10/14 11:03:49;;;;;;;;;;;22.90;50.10;;;;;;5008871;28;114152;-83
2023/10/14 11:06:17;;;;;;;;;;;22.90;50.10;;;;;;5008699;28;114917;-83
2023/10/14 11:08:46;;;;;;;;;;;22.90;50.30;;;;;;4990313;28;114942;-82
2023/10/14 11:11:14;;;;;;;;;;;22.90;50.00;;;;;;5007928;28;114580;-84
2023/10/14 11:13:42;;;;;;;;;;;22.80;49.70;;;;;;5007257;28;114171;-82
2023/10/14 11:16:12;;;;;;;;;;;22.80;49.80;;;;;;5007425;28;114449;-82
2023/10/14 11:18:47;;;;;;;;;;;22.80;49.80;;;;;;5005581;28;115117;-82
2023/10/14 11:21:14;;;;;;;;;;;22.80;49.50;;;;;;5006592;28;116983;-82
2023/10/14 11:23:41;;;;;;;;;;;22.80;49.60;;;;;;5006711;28;114873;-83
2023/10/14 11:26:11;;;;;;;;;;;22.90;49.50;;;;;;5007176;28;114353;-83
2023/10/14 11:28:39;;;;;;;;;;;22.90;49.40;;;;;;5006336;28;118262;-82
2023/10/14 11:31:09;;;;;;;;;;;22.90;49.30;;;;;;4973232;28;114764;-83
2023/10/14 11:33:36;;;;;;;;;;;22.90;49.20;;;;;;5008013;28;114621;-82
2023/10/14 11:36:04;;;;;;;;;;;22.90;49.30;;;;;;5008322;28;114346;-82
2023/10/14 11:38:31;;;;;;;;;;;22.90;49.30;;;;;;5006954;28;115038;-83
2023/10/14 11:40:58;;;;;;;;;;;22.90;49.40;;;;;;5005207;28;117366;-83
2023/10/14 11:43:25;;;;;;;;;;;22.80;49.40;;;;;;5007852;28;114453;-81
2023/10/14 11:45:54;;;;;;;;;;;22.80;49.50;;;;;;5007227;28;114162;-83
2023/10/14 11:48:24;;;;;;;;;;;22.80;49.60;;;;;;5005829;28;115153;-83
2023/10/14 11:50:55;;;;;;;;;;;22.80;49.40;;;;;;5007009;28;114530;-82
2023/10/14 11:53:27;;;;;;;;;;;22.80;49.60;;;;;;5007124;28;114137;-83
2023/10/14 11:56:01;;;;;;;;;;;22.80;49.40;;;;;;5007809;28;114363;-83
2023/10/14 11:58:29;;;;;;;;;;;22.80;49.50;;;;;;4989065;28;115032;-83
2023/10/14 12:00:56;;;;;;;;;;;22.80;49.30;;;;;;5005706;28;115625;-84
2023/10/14 12:03:26;;;;;;;;;;;22.70;49.40;;;;;;4989933;28;114287;-83
2023/10/14 12:05:57;;;;;;;;;;;22.70;49.50;;;;;;5007474;28;114181;-83
2023/10/14 12:08:25;;;;;;;;;;;22.70;49.40;;;;;;4988516;28;114768;-83
2023/10/14 12:10:52;;;;;;;;;;;22.70;49.50;;;;;;4989046;28;114558;-84
2023/10/14 12:13:23;;;;;;;;;;;22.70;49.50;;;;;;5007465;28;114458;-81
2023/10/14 12:16:11;;;;;;;;;;;22.70;49.50;;;;;;5007395;28;114371;-82
2023/10/14 12:18:38;;;;;;;;;;;22.60;49.40;;;;;;5006254;28;114804;-83
2023/10/14 12:21:05;;;;;;;;;;;22.60;49.50;;;;;;5005282;28;114632;-83
2023/10/14 12:23:32;;;;;;;;;;;22.50;49.60;;;;;;5005860;28;115337;-82
2023/10/14 12:26:00;;;;;;;;;;;22.50;49.60;;;;;;5007325;28;114121;-83
2023/10/14 12:28:30;;;;;;;;;;;22.50;49.60;;;;;;5005953;28;115421;-83
2023/10/14 12:31:06;;;;;;;;;;;22.50;49.60;;;;;;5005140;28;116108;-83
2023/10/14 12:33:38;;;;;;;;;;;22.50;49.50;;;;;;5005426;28;114451;-83
2023/10/14 12:36:10;;;;;;;;;;;22.60;49.40;;;;;;5005929;28;114085;-83
2023/10/14 12:38:42;;;;;;;;;;;22.70;49.50;;;;;;4989025;28;115010;-82
2023/10/14 12:41:13;;;;;;;;;;;22.80;49.30;;;;;;5004823;28;117133;-82
2023/10/14 12:43:40;;;;;;;;;;;22.80;49.10;;;;;;5006016;28;114183;-83
2023/10/14 12:46:14;;;;;;;;;;;22.80;49.10;;;;;;5006491;28;114287;-83
2023/10/14 12:48:43;;;;;;;;;;;22.80;48.80;;;;;;4989978;28;115092;-83
2023/10/14 12:51:17;;;;;;;;;;;22.80;48.40;;;;;;5005400;28;114969;-82
2023/10/14 12:54:00;;;;;;;;;;;22.80;48.20;;;;;;4988882;28;114383;-83
2023/10/14 12:56:27;;;;;;;;;;;22.80;48.30;;;;;;5005739;28;114384;-84
2023/10/14 12:58:57;;;;;;;;;;;22.70;48.30;;;;;;4987789;28;115523;-83
2023/10/14 13:01:25;;;;;;;;;;;22.60;48.30;;;;;;5004917;28;114636;-83
2023/10/14 13:03:53;;;;;;;;;;;22.50;48.50;;;;;;4989143;28;114350;-83
2023/10/14 13:06:23;;;;;;;;;;;22.40;48.60;;;;;;5005577;28;114344;-82
2023/10/14 13:08:58;;;;;;;;;;;22.40;48.70;;;;;;5005425;28;116968;-83
2023/10/14 13:11:25;;;;;;;;;;;22.30;48.80;;;;;;5005752;28;114774;-83
2023/10/14 13:13:52;;;;;;;;;;;22.30;48.80;;;;;;5005103;28;114278;-83
2023/10/14 13:16:19;;;;;;;;;;;22.20;48.90;;;;;;5007137;28;114161;-83
2023/10/14 13:18:50;;;;;;;;;;;22.10;49.00;;;;;;5005189;28;114905;-82
2023/10/14 13:21:19;;;;;;;;;;;22.10;49.10;;;;;;5005284;28;114618;-84
2023/10/14 13:23:46;;;;;;;;;;;22.00;49.30;;;;;;5004815;28;114394;-83
2023/10/14 13:26:15;;;;;;;;;;;22.00;49.30;;;;;;5004924;28;114543;-83
2023/10/14 13:28:45;;;;;;;;;;;21.90;49.20;;;;;;4987667;28;115889;-82
2023/10/14 13:31:12;;;;;;;;;;;21.80;48.90;;;;;;5005617;28;114695;-82
2023/10/14 13:33:41;;;;;;;;;;;21.70;49.20;;;;;;5006412;28;114426;-82
2023/10/14 13:36:11;;;;;;;;;;;21.70;49.30;;;;;;5006352;28;114488;-83
2023/10/14 13:38:39;;;;;;;;;;;21.70;49.30;;;;;;5005450;28;115366;-83
2023/10/14 13:41:13;;;;;;;;;;;21.70;49.50;;;;;;5005751;28;115100;-83
2023/10/14 13:43:40;;;;;;;;;;;21.60;49.50;;;;;;5006356;28;114330;-82
2023/10/14 13:46:07;;;;;;;;;;;21.60;49.60;;;;;;5005059;28;114536;-83
2023/10/14 13:48:35;;;;;;;;;;;21.50;49.70;;;;;;5003664;28;115236;-82
2023/10/14 13:51:02;;;;;;;;;;;21.50;49.70;;;;;;5005250;28;114619;-82
2023/10/14 13:53:35;;;;;;;;;;;21.40;49.80;;;;;;5004940;28;114424;-83
2023/10/14 13:56:03;;;;;;;;;;;21.40;49.90;;;;;;5005870;28;114109;-83
2023/10/14 13:58:34;;;;;;;;;;;21.40;50.10;;;;;;5004105;28;115532;-82
2023/10/14 14:01:04;;;;;;;;;;;21.30;49.90;;;;;;5004953;28;114580;-83
2023/10/14 14:03:31;;;;;;;;;;;21.20;49.90;;;;;;5006328;28;114171;-82
2023/10/14 14:06:04;;;;;;;;;;;21.20;49.90;;;;;;5009756;28;114340;-83
2023/10/14 14:08:31;;;;;;;;;;;21.10;50.00;;;;;;5007217;28;114931;-83
2023/10/14 14:11:03;;;;;;;;;;;21.10;50.10;;;;;;5008447;28;114506;-83
2023/10/14 14:13:31;;;;;;;;;;;21.00;50.10;;;;;;5008833;28;114114;-85
2023/10/14 14:16:02;;;;;;;;;;;21.00;50.10;;;;;;5009084;28;114791;-84
2023/10/14 14:18:32;;;;;;;;;;;21.00;50.20;;;;;;4991007;28;115111;-83
2023/10/14 14:21:00;;;;;;;;;;;21.00;50.10;;;;;;5008079;28;115105;-83
2023/10/14 14:23:27;;;;;;;;;;;21.00;50.20;;;;;;5009249;28;114255;-83
2023/10/14 14:25:56;;;;;;;;;;;21.00;50.20;;;;;;5009144;28;114412;-83
2023/10/14 14:28:24;;;;;;;;;;;20.90;50.20;;;;;;5008295;28;114912;-84
2023/10/14 14:30:51;;;;;;;;;;;20.90;50.30;;;;;;5008463;28;115088;-83
2023/10/14 14:33:18;;;;;;;;;;;21.00;50.20;;;;;;5008986;28;114217;-85
2023/10/14 14:35:46;;;;;;;;;;;20.90;50.20;;;;;;5012691;28;114144;-83
2023/10/14 14:38:20;;;;;;;;;;;20.80;50.20;;;;;;5008115;28;114866;-83
2023/10/14 14:40:48;;;;;;;;;;;20.80;50.30;;;;;;5008002;28;114647;-83